createdAt,value
2022-09-29T00:00:35.259Z,58.33
2022-09-29T00:03:01.856Z,58.34
2022-09-29T00:05:30.479Z,58.35
2022-09-29T00:07:57.026Z,58.27
2022-09-29T00:10:23.859Z,58.50
2022-09-29T00:12:50.406Z,58.62
2022-09-29T00:15:17.298Z,58.40
2022-09-29T00:18:02.706Z,58.32
2022-09-29T00:20:32.113Z,58.55
2022-09-29T00:22:58.764Z,58.63
2022-09-29T00:25:25.517Z,58.54
2022-09-29T00:27:52.019Z,58.36
2022-09-29T00:30:18.643Z,58.48
2022-09-29T00:32:45.186Z,58.59
2022-09-29T00:35:12.274Z,58.41
2022-09-29T00:37:40.065Z,58.60
2022-09-29T00:40:07.813Z,58.54
2022-09-29T00:42:34.264Z,58.38
2022-09-29T00:45:22.951Z,58.50
2022-09-29T00:47:57.017Z,58.38
2022-09-29T00:50:33.973Z,58.42
2022-09-29T00:53:04.061Z,58.39
2022-09-29T00:55:36.889Z,58.34
2022-09-29T00:58:13.104Z,58.49
2022-09-29T01:00:40.219Z,58.51
2022-09-29T01:03:17.298Z,58.44
2022-09-29T01:05:50.027Z,58.63
2022-09-29T01:08:26.834Z,58.29
2022-09-29T01:10:53.972Z,58.42
2022-09-29T01:13:22.224Z,58.17
2022-09-29T01:15:48.786Z,58.30
2022-09-29T01:18:15.466Z,58.30
2022-09-29T01:20:52.889Z,58.32
2022-09-29T01:24:13.068Z,58.39
2022-09-29T01:27:10.458Z,58.45
2022-09-29T01:29:57.985Z,58.43
2022-09-29T01:33:00.917Z,58.40
2022-09-29T01:35:37.378Z,58.31
2022-09-29T01:38:22.585Z,58.43
2022-09-29T01:41:24.598Z,58.61
2022-09-29T01:44:35.118Z,58.57
2022-09-29T01:47:10.550Z,58.75
2022-09-29T01:49:40.738Z,58.57
2022-09-29T01:52:11.945Z,58.51
2022-09-29T01:54:48.500Z,58.50
2022-09-29T01:57:22.560Z,58.67
2022-09-29T01:59:55.169Z,58.74
2022-09-29T02:02:37.809Z,58.62
2022-09-29T02:05:11.651Z,58.68
2022-09-29T02:07:42.530Z,58.82
2022-09-29T02:10:33.915Z,58.73
2022-09-29T02:13:03.006Z,58.86
2022-09-29T02:15:39.118Z,58.76
2022-09-29T02:18:16.644Z,58.65
2022-09-29T02:20:43.205Z,58.76
2022-09-29T02:23:09.746Z,58.61
2022-09-29T02:25:39.143Z,58.65
2022-09-29T02:28:07.406Z,58.73
2022-09-29T02:30:35.353Z,58.40
2022-09-29T02:33:02.374Z,58.32
2022-09-29T02:35:55.574Z,58.70
2022-09-29T02:38:35.833Z,58.45
2022-09-29T02:41:15.886Z,58.32
2022-09-29T02:44:14.671Z,58.37
2022-09-29T02:46:56.121Z,58.45
2022-09-29T02:49:38.092Z,58.56
2022-09-29T02:52:26.550Z,58.63
2022-09-29T02:55:07.924Z,58.41
2022-09-29T02:57:37.408Z,58.63
2022-09-29T03:00:17.818Z,58.56
2022-09-29T03:02:44.814Z,58.27
2022-09-29T03:05:29.648Z,58.44
2022-09-29T03:07:56.097Z,58.14
2022-09-29T03:10:24.866Z,58.29
2022-09-29T03:12:53.661Z,58.18
2022-09-29T03:15:24.606Z,58.34
2022-09-29T03:17:54.511Z,58.46
2022-09-29T03:20:21.533Z,58.64
2022-09-29T03:22:48.065Z,58.50
2022-09-29T03:25:15.887Z,58.39
2022-09-29T03:27:42.375Z,58.34
2022-09-29T03:30:12.300Z,58.58
2022-09-29T03:32:38.800Z,58.48
2022-09-29T03:35:06.031Z,58.67
2022-09-29T03:37:32.521Z,58.46
2022-09-29T03:39:59.135Z,58.77
2022-09-29T03:42:26.148Z,58.75
2022-09-29T03:44:53.145Z,58.71
2022-09-29T03:47:19.768Z,58.77
2022-09-29T03:49:46.247Z,58.83
2022-09-29T03:52:12.711Z,58.80
2022-09-29T03:54:43.466Z,58.87
2022-09-29T03:57:10.060Z,58.79
2022-09-29T03:59:36.599Z,58.80
2022-09-29T04:02:03.320Z,58.59
2022-09-29T04:04:35.055Z,58.53
2022-09-29T04:07:01.539Z,58.69
2022-09-29T04:09:28.000Z,58.61
2022-09-29T04:11:54.505Z,58.83
2022-09-29T04:14:24.069Z,58.66
2022-09-29T04:16:50.643Z,58.87
2022-09-29T04:19:17.277Z,58.99
2022-09-29T04:21:43.844Z,58.78
2022-09-29T04:24:11.157Z,58.93
2022-09-29T04:26:37.668Z,58.90
2022-09-29T04:29:04.143Z,58.59
2022-09-29T04:31:30.736Z,58.66
2022-09-29T04:33:59.078Z,58.89
2022-09-29T04:36:25.633Z,58.98
2022-09-29T04:38:52.125Z,59.00
2022-09-29T04:41:18.746Z,58.85
2022-09-29T04:43:49.742Z,58.68
2022-09-29T04:46:16.407Z,58.73
2022-09-29T04:48:43.181Z,58.60
2022-09-29T04:51:10.587Z,58.86
2022-09-29T04:53:43.071Z,58.73
2022-09-29T04:56:09.680Z,58.72
2022-09-29T04:58:36.546Z,58.66
2022-09-29T05:01:13.728Z,58.61
2022-09-29T05:03:44.485Z,58.56
2022-09-29T05:06:11.265Z,58.58
2022-09-29T05:08:37.729Z,58.78
2022-09-29T05:11:06.274Z,58.63
2022-09-29T05:13:32.782Z,58.66
2022-09-29T05:15:59.504Z,58.59
2022-09-29T05:18:26.047Z,58.66
2022-09-29T05:21:15.847Z,58.73
2022-09-29T05:23:42.581Z,58.66
2022-09-29T05:26:10.334Z,58.54
2022-09-29T05:28:38.224Z,58.27
2022-09-29T05:31:07.371Z,58.51
2022-09-29T05:33:37.893Z,58.48
2022-09-29T05:36:07.214Z,58.48
2022-09-29T05:38:35.279Z,58.54
2022-09-29T05:41:06.926Z,58.56
2022-09-29T05:43:33.669Z,58.58
2022-09-29T05:46:02.231Z,58.62
2022-09-29T05:48:32.217Z,58.65
2022-09-29T05:51:00.340Z,58.53
2022-09-29T05:53:26.921Z,58.56
2022-09-29T05:55:54.018Z,58.54
2022-09-29T05:58:20.598Z,58.76
2022-09-29T06:00:47.123Z,58.80
2022-09-29T06:03:13.678Z,58.69
2022-09-29T06:05:41.041Z,58.60
2022-09-29T06:08:07.813Z,58.60
2022-09-29T06:10:34.481Z,58.82
2022-09-29T06:13:03.272Z,58.98
2022-09-29T06:15:29.965Z,58.89
2022-09-29T06:18:01.056Z,58.88
2022-09-29T06:20:27.637Z,59.05
2022-09-29T06:22:55.239Z,59.18
2022-09-29T06:25:22.534Z,59.07
2022-09-29T06:27:49.172Z,59.06
2022-09-29T06:30:15.762Z,59.26
2022-09-29T06:32:42.369Z,59.20
2022-09-29T06:35:31.671Z,59.20
2022-09-29T06:37:58.678Z,59.27
2022-09-29T06:40:27.403Z,59.31
2022-09-29T06:42:54.609Z,59.31
2022-09-29T06:45:22.602Z,59.31
2022-09-29T06:47:49.190Z,59.28
2022-09-29T06:50:21.002Z,59.34
2022-09-29T06:53:01.784Z,59.41
2022-09-29T06:55:31.628Z,59.75
2022-09-29T06:58:03.509Z,59.94
2022-09-29T07:00:31.293Z,60.37
2022-09-29T07:02:58.328Z,60.35
2022-09-29T07:05:24.813Z,60.67
2022-09-29T07:07:53.208Z,60.85
2022-09-29T07:10:21.332Z,60.95
2022-09-29T07:12:47.813Z,60.87
2022-09-29T07:15:15.243Z,60.62
2022-09-29T07:17:41.746Z,60.54
2022-09-29T07:20:09.430Z,60.78
2022-09-29T07:22:35.950Z,60.71
2022-09-29T07:25:04.246Z,60.56
2022-09-29T07:27:30.784Z,60.57
2022-09-29T07:30:03.644Z,60.37
2022-09-29T07:32:32.687Z,59.93
2022-09-29T07:35:00.017Z,59.95
2022-09-29T07:37:30.420Z,59.35
2022-09-29T07:39:57.323Z,59.81
2022-09-29T07:42:23.898Z,59.42
2022-09-29T07:44:57.038Z,59.06
2022-09-29T07:47:23.670Z,58.86
2022-09-29T07:49:50.499Z,58.79
2022-09-29T07:52:17.041Z,58.61
2022-09-29T07:54:44.773Z,58.55
2022-09-29T07:57:11.583Z,58.71
2022-09-29T07:59:40.908Z,58.58
2022-09-29T08:02:14.072Z,58.59
2022-09-29T08:04:43.901Z,58.04
2022-09-29T08:07:10.827Z,57.78
2022-09-29T08:09:41.255Z,57.54
2022-09-29T08:12:08.709Z,57.58
2022-09-29T08:14:43.302Z,57.33
2022-09-29T08:17:10.527Z,57.36
2022-09-29T08:19:37.086Z,57.48
2022-09-29T08:22:03.592Z,57.29
2022-09-29T08:24:31.449Z,57.05
2022-09-29T08:27:07.120Z,57.45
2022-09-29T08:29:45.589Z,56.96
2022-09-29T08:32:13.077Z,56.61
2022-09-29T08:34:40.688Z,56.81
2022-09-29T08:37:07.169Z,56.65
2022-09-29T08:39:35.669Z,56.97
2022-09-29T08:42:20.956Z,56.63
2022-09-29T08:45:08.956Z,56.41
2022-09-29T08:47:50.930Z,56.09
2022-09-29T08:50:29.566Z,56.18
2022-09-29T08:53:01.053Z,55.89
2022-09-29T08:55:43.291Z,55.93
2022-09-29T08:58:14.328Z,55.90
2022-09-29T09:00:48.575Z,55.94
2022-09-29T09:04:00.070Z,55.74
2022-09-29T09:06:29.578Z,55.44
2022-09-29T09:09:23.421Z,55.41
2022-09-29T09:12:04.863Z,54.89
2022-09-29T09:14:58.625Z,54.68
2022-09-29T09:17:55.969Z,55.13
2022-09-29T09:20:35.156Z,54.77
2022-09-29T09:23:27.429Z,54.78
2022-09-29T09:26:01.168Z,54.52
2022-09-29T09:28:34.810Z,54.42
2022-09-29T09:31:21.590Z,54.32
2022-09-29T09:34:05.907Z,53.78
2022-09-29T09:36:34.590Z,53.57
2022-09-29T09:39:16.540Z,53.69
2022-09-29T09:41:47.946Z,53.54
2022-09-29T09:44:34.789Z,53.16
2022-09-29T09:47:19.295Z,53.11
2022-09-29T09:49:52.188Z,53.08
2022-09-29T09:52:27.462Z,53.08
2022-09-29T09:54:59.838Z,53.10
2022-09-29T09:57:40.078Z,53.05
2022-09-29T10:00:15.575Z,52.67
2022-09-29T10:02:56.680Z,52.48
2022-09-29T10:05:38.928Z,52.35
2022-09-29T10:08:25.686Z,52.10
2022-09-29T10:10:58.610Z,51.84
2022-09-29T10:13:31.257Z,51.85
2022-09-29T10:16:28.891Z,51.43
2022-09-29T10:18:55.573Z,51.24
2022-09-29T10:21:29.583Z,51.22
2022-09-29T10:24:00.826Z,51.02
2022-09-29T10:26:34.915Z,50.95
2022-09-29T10:29:22.464Z,50.53
2022-09-29T10:32:36.521Z,50.22
2022-09-29T10:35:33.246Z,50.26
2022-09-29T10:38:02.266Z,50.29
2022-09-29T10:40:29.393Z,50.34
2022-09-29T10:42:57.278Z,50.07
2022-09-29T10:45:29.963Z,49.97
2022-09-29T10:48:00.331Z,49.79
2022-09-29T10:50:47.807Z,49.22
2022-09-29T10:53:51.679Z,48.88
2022-09-29T10:56:22.383Z,48.83
2022-09-29T10:59:00.432Z,48.82
2022-09-29T11:01:35.085Z,49.03
2022-09-29T11:04:13.940Z,48.79
2022-09-29T11:06:44.150Z,48.45
2022-09-29T11:09:14.286Z,47.93
2022-09-29T11:11:59.419Z,47.96
2022-09-29T11:14:41.737Z,47.71
2022-09-29T11:17:23.923Z,47.51
2022-09-29T11:19:52.714Z,47.33
2022-09-29T11:22:21.952Z,47.16
2022-09-29T11:25:22.469Z,46.76
2022-09-29T11:28:11.669Z,46.97
2022-09-29T11:31:09.225Z,46.48
2022-09-29T11:33:37.987Z,46.16
2022-09-29T11:36:23.533Z,46.04
2022-09-29T11:38:56.192Z,45.99
2022-09-29T11:41:50.990Z,46.49
2022-09-29T11:44:50.076Z,46.11
2022-09-29T11:47:53.656Z,46.49
2022-09-29T11:50:23.518Z,46.41
2022-09-29T11:53:08.276Z,45.89
2022-09-29T11:56:11.575Z,45.98
2022-09-29T11:59:10.187Z,45.59
2022-09-29T12:02:06.264Z,45.66
2022-09-29T12:05:02.664Z,45.48
2022-09-29T12:07:47.262Z,45.21
2022-09-29T12:10:33.149Z,44.99
2022-09-29T12:13:27.411Z,44.91
2022-09-29T12:16:03.996Z,44.43
2022-09-29T12:18:39.520Z,44.21
2022-09-29T12:21:12.993Z,44.51
2022-09-29T12:23:46.692Z,44.06
2022-09-29T12:26:23.378Z,43.80
2022-09-29T12:29:00.063Z,44.11
2022-09-29T12:31:31.797Z,44.08
2022-09-29T12:34:17.436Z,43.49
2022-09-29T12:36:54.011Z,43.79
2022-09-29T12:39:31.506Z,43.69
2022-09-29T12:42:11.260Z,43.36
2022-09-29T12:45:00.691Z,42.84
2022-09-29T12:47:48.627Z,42.85
2022-09-29T12:50:38.857Z,42.76
2022-09-29T12:53:18.010Z,43.03
2022-09-29T12:55:48.008Z,42.75
2022-09-29T12:58:24.169Z,42.62
2022-09-29T13:01:03.307Z,42.36
2022-09-29T13:04:04.923Z,41.99
2022-09-29T13:07:07.450Z,41.77
2022-09-29T13:09:42.149Z,41.74
2022-09-29T13:12:39.422Z,41.69
2022-09-29T13:15:34.114Z,41.69
2022-09-29T13:18:26.354Z,41.71
2022-09-29T13:21:04.948Z,41.75
2022-09-29T13:24:00.665Z,41.14
2022-09-29T13:27:02.692Z,41.34
2022-09-29T13:29:31.539Z,41.32
2022-09-29T13:31:59.109Z,41.09
2022-09-29T13:34:35.031Z,40.66
2022-09-29T13:37:21.853Z,40.15
2022-09-29T13:40:03.703Z,40.16
2022-09-29T13:42:40.693Z,40.13
2022-09-29T13:45:26.825Z,39.95
2022-09-29T13:48:00.017Z,40.13
2022-09-29T13:50:44.640Z,39.79
2022-09-29T13:53:25.503Z,40.05
2022-09-29T13:56:08.758Z,39.78
2022-09-29T13:58:41.717Z,39.95
2022-09-29T14:01:10.680Z,39.83
2022-09-29T14:03:44.299Z,39.64
2022-09-29T14:06:39.779Z,39.95
2022-09-29T14:09:33.380Z,40.21
2022-09-29T14:12:16.796Z,40.58
2022-09-29T14:14:58.868Z,40.66
2022-09-29T14:17:37.247Z,40.05
2022-09-29T14:20:19.976Z,40.08
2022-09-29T14:22:46.429Z,40.13
2022-09-29T14:25:15.019Z,40.76
2022-09-29T14:27:58.623Z,40.13
2022-09-29T14:30:43.816Z,40.54
2022-09-29T14:33:10.285Z,40.38
2022-09-29T14:35:39.827Z,40.17
2022-09-29T14:38:26.462Z,40.33
2022-09-29T14:41:07.936Z,40.03
2022-09-29T14:43:43.120Z,40.32
2022-09-29T14:46:40.422Z,40.64
2022-09-29T14:49:47.421Z,40.81
2022-09-29T14:52:32.342Z,40.63
2022-09-29T14:55:22.516Z,40.67
2022-09-29T14:57:54.796Z,41.01
2022-09-29T15:00:27.385Z,40.60
2022-09-29T15:03:00.226Z,40.83
2022-09-29T15:05:44.719Z,40.80
2022-09-29T15:08:28.296Z,40.62
2022-09-29T15:10:56.158Z,40.82
2022-09-29T15:13:30.198Z,40.87
2022-09-29T15:16:06.502Z,41.17
2022-09-29T15:18:40.211Z,41.50
2022-09-29T15:21:15.282Z,41.43
2022-09-29T15:24:14.595Z,41.58
2022-09-29T15:26:42.989Z,41.68
2022-09-29T15:29:17.291Z,41.53
2022-09-29T15:31:47.903Z,41.58
2022-09-29T15:34:20.071Z,41.51
2022-09-29T15:36:55.398Z,41.56
2022-09-29T15:39:30.936Z,41.86
2022-09-29T15:42:23.670Z,42.11
2022-09-29T15:45:00.148Z,42.23
2022-09-29T15:47:39.388Z,42.30
2022-09-29T15:50:21.047Z,42.63
2022-09-29T15:52:48.403Z,42.70
2022-09-29T15:55:18.183Z,42.91
2022-09-29T15:57:47.963Z,43.07
2022-09-29T16:00:23.646Z,43.59
2022-09-29T16:03:04.236Z,43.77
2022-09-29T16:05:34.205Z,43.97
2022-09-29T16:08:04.263Z,44.10
2022-09-29T16:10:40.758Z,44.39
2022-09-29T16:13:15.565Z,44.26
2022-09-29T16:15:46.188Z,44.67
2022-09-29T16:18:19.994Z,44.88
2022-09-29T16:20:46.944Z,44.75
2022-09-29T16:23:25.312Z,45.25
2022-09-29T16:26:14.245Z,45.33
2022-09-29T16:29:01.044Z,45.43
2022-09-29T16:31:30.056Z,45.38
2022-09-29T16:34:01.012Z,45.79
2022-09-29T16:36:35.987Z,45.98
2022-09-29T16:39:05.252Z,46.06
2022-09-29T16:41:41.068Z,46.29
2022-09-29T16:44:24.489Z,46.11
2022-09-29T16:46:55.931Z,46.41
2022-09-29T16:49:31.753Z,46.25
2022-09-29T16:52:15.786Z,46.46
2022-09-29T16:54:44.704Z,46.54
2022-09-29T16:57:27.551Z,46.96
2022-09-29T17:00:11.714Z,47.02
2022-09-29T17:02:38.261Z,46.97
2022-09-29T17:05:05.159Z,46.99
2022-09-29T17:07:32.156Z,47.43
2022-09-29T17:10:00.902Z,47.52
2022-09-29T17:12:29.584Z,47.29
2022-09-29T17:15:01.537Z,47.39
2022-09-29T17:17:28.573Z,47.64
2022-09-29T17:19:56.694Z,47.78
2022-09-29T17:22:41.356Z,48.06
2022-09-29T17:25:13.475Z,47.89
2022-09-29T17:27:58.874Z,48.00
2022-09-29T17:30:26.137Z,48.04
2022-09-29T17:32:54.769Z,48.33
2022-09-29T17:35:27.866Z,48.36
2022-09-29T17:37:56.170Z,48.38
2022-09-29T17:40:28.454Z,48.52
2022-09-29T17:42:58.969Z,48.79
2022-09-29T17:45:25.964Z,49.08
2022-09-29T17:47:53.302Z,49.25
2022-09-29T17:50:22.517Z,49.20
2022-09-29T17:52:49.071Z,49.42
2022-09-29T17:55:15.775Z,49.62
2022-09-29T17:57:43.429Z,49.67
2022-09-29T18:00:19.326Z,49.79
2022-09-29T18:02:46.076Z,49.97
2022-09-29T18:05:13.991Z,49.70
2022-09-29T18:07:41.638Z,49.66
2022-09-29T18:10:28.774Z,50.10
2022-09-29T18:12:56.297Z,49.84
2022-09-29T18:15:27.521Z,50.00
2022-09-29T18:17:59.178Z,50.51
2022-09-29T18:20:29.691Z,50.19
2022-09-29T18:22:59.238Z,50.30
2022-09-29T18:25:33.634Z,50.57
2022-09-29T18:28:01.805Z,50.86
2022-09-29T18:30:40.287Z,50.84
2022-09-29T18:33:14.909Z,50.88
2022-09-29T18:35:44.536Z,51.01
2022-09-29T18:38:11.675Z,50.87
2022-09-29T18:40:39.179Z,50.94
2022-09-29T18:43:07.310Z,50.82
2022-09-29T18:45:37.437Z,50.77
2022-09-29T18:48:06.383Z,51.10
2022-09-29T18:50:39.244Z,50.97
2022-09-29T18:53:06.231Z,51.57
2022-09-29T18:55:32.787Z,51.07
2022-09-29T18:58:00.133Z,51.61
2022-09-29T19:00:32.818Z,51.34
2022-09-29T19:03:01.097Z,51.16
2022-09-29T19:05:30.967Z,51.41
2022-09-29T19:08:00.635Z,51.47
2022-09-29T19:10:32.516Z,51.71
2022-09-29T19:13:08.361Z,51.96
2022-09-29T19:15:40.617Z,52.03
2022-09-29T19:18:08.281Z,51.84
2022-09-29T19:20:35.591Z,51.95
2022-09-29T19:23:03.077Z,51.84
2022-09-29T19:25:39.243Z,51.78
2022-09-29T19:28:06.160Z,51.67
2022-09-29T19:30:37.171Z,52.24
2022-09-29T19:33:05.033Z,52.23
2022-09-29T19:35:31.824Z,52.18
2022-09-29T19:37:59.379Z,52.21
2022-09-29T19:40:29.713Z,52.65
2022-09-29T19:42:58.445Z,52.51
2022-09-29T19:45:26.566Z,52.16
2022-09-29T19:47:57.064Z,52.43
2022-09-29T19:50:43.056Z,52.01
2022-09-29T19:55:42.103Z,52.45
2022-09-29T19:58:08.697Z,52.51
2022-09-29T20:00:35.687Z,52.28
2022-09-29T20:03:02.476Z,52.56
2022-09-29T20:05:29.467Z,52.56
2022-09-29T20:07:56.054Z,52.63
2022-09-29T20:10:24.205Z,52.56
2022-09-29T20:12:50.741Z,52.33
2022-09-29T20:15:17.404Z,52.15
2022-09-29T20:17:44.626Z,52.15
2022-09-29T20:20:11.881Z,52.29
2022-09-29T20:22:38.926Z,52.47
2022-09-29T20:25:07.830Z,52.62
2022-09-29T20:27:35.719Z,52.46
2022-09-29T20:30:05.231Z,52.72
2022-09-29T20:32:33.540Z,52.37
2022-09-29T20:35:01.761Z,52.85
2022-09-29T20:37:29.089Z,52.75
2022-09-29T20:39:56.124Z,52.47
2022-09-29T20:42:22.745Z,52.44
2022-09-29T20:44:55.096Z,52.69
2022-09-29T20:47:25.369Z,52.53
2022-09-29T20:49:54.821Z,52.74
2022-09-29T20:52:21.573Z,52.69
2022-09-29T20:54:48.205Z,52.68
2022-09-29T20:57:18.363Z,52.59
2022-09-29T20:59:45.098Z,52.29
2022-09-29T21:02:13.604Z,52.66
2022-09-29T21:04:42.334Z,52.62
2022-09-29T21:07:28.842Z,52.51
2022-09-29T21:09:55.419Z,52.64
2022-09-29T21:12:21.873Z,52.57
2022-09-29T21:14:48.583Z,52.75
2022-09-29T21:17:15.071Z,52.57
2022-09-29T21:19:41.630Z,52.50
2022-09-29T21:22:08.965Z,52.68
2022-09-29T21:24:41.381Z,52.88
2022-09-29T21:27:09.213Z,52.81
2022-09-29T21:29:35.844Z,52.52
2022-09-29T21:32:02.386Z,52.96
2022-09-29T21:34:33.433Z,52.90
2022-09-29T21:36:59.921Z,52.83
2022-09-29T21:39:26.451Z,52.70
2022-09-29T21:41:53.000Z,52.52
2022-09-29T21:44:23.951Z,52.83
2022-09-29T21:46:51.328Z,52.97
2022-09-29T21:49:19.287Z,53.07
2022-09-29T21:51:48.343Z,53.11
2022-09-29T21:54:25.479Z,53.10
2022-09-29T21:56:53.073Z,52.86
2022-09-29T21:59:20.879Z,52.79
2022-09-29T22:01:47.583Z,52.78
2022-09-29T22:04:17.067Z,53.36
2022-09-29T22:06:44.968Z,53.19
2022-09-29T22:09:16.915Z,53.29
2022-09-29T22:11:44.162Z,52.88
2022-09-29T22:14:13.962Z,53.00
2022-09-29T22:16:40.707Z,53.28
2022-09-29T22:19:24.692Z,53.15
2022-09-29T22:21:53.220Z,53.12
2022-09-29T22:24:23.744Z,53.02
2022-09-29T22:26:50.309Z,53.48
2022-09-29T22:29:17.032Z,53.36
2022-09-29T22:31:43.670Z,53.32
2022-09-29T22:34:11.164Z,53.35
2022-09-29T22:36:37.739Z,53.46
2022-09-29T22:39:06.364Z,53.57
2022-09-29T22:41:33.351Z,53.43
2022-09-29T22:44:04.608Z,53.43
2022-09-29T22:46:32.267Z,53.57
2022-09-29T22:48:59.751Z,53.25
2022-09-29T22:51:26.684Z,53.24
2022-09-29T22:53:56.370Z,53.26
2022-09-29T22:56:30.274Z,53.64
2022-09-29T22:59:02.987Z,53.52
2022-09-29T23:01:30.082Z,53.65
2022-09-29T23:03:58.426Z,53.57
2022-09-29T23:06:25.129Z,53.58
2022-09-29T23:08:53.504Z,53.70
2022-09-29T23:11:20.188Z,53.40
2022-09-29T23:13:48.952Z,53.56
2022-09-29T23:16:16.739Z,53.78
2022-09-29T23:18:45.730Z,53.78
2022-09-29T23:21:14.796Z,53.81
2022-09-29T23:23:43.298Z,53.86
2022-09-29T23:26:09.786Z,53.87
2022-09-29T23:28:36.291Z,53.88
2022-09-29T23:31:07.626Z,53.87
2022-09-29T23:33:34.252Z,53.88
2022-09-29T23:36:09.405Z,53.79
2022-09-29T23:38:56.054Z,53.86
2022-09-29T23:41:24.166Z,53.87
2022-09-29T23:43:56.146Z,53.93
2022-09-29T23:46:31.566Z,54.16
2022-09-29T23:49:02.746Z,54.23
2022-09-29T23:51:33.250Z,53.99
2022-09-29T23:54:00.815Z,54.15
2022-09-29T23:56:27.965Z,54.13
2022-09-29T23:58:55.498Z,54.27
